createdAt,value
2022-10-22T00:04:52.374Z,99805.23
2022-10-22T00:13:15.959Z,99801.30
2022-10-22T00:21:39.150Z,99793.97
2022-10-22T00:30:03.365Z,99779.64
2022-10-22T00:38:26.585Z,99774.92
2022-10-22T00:46:49.475Z,99768.73
2022-10-22T00:55:14.350Z,99756.86
2022-10-22T01:03:37.189Z,99742.45
2022-10-22T01:12:19.160Z,99724.71
2022-10-22T01:21:00.859Z,99741.00
2022-10-22T01:29:34.184Z,99731.91
2022-10-22T01:38:01.575Z,99741.91
2022-10-22T01:46:27.302Z,99719.05
2022-10-22T01:55:09.886Z,99714.80
2022-10-22T02:03:45.249Z,99705.95
2022-10-22T02:12:09.660Z,99704.94
2022-10-22T02:20:35.803Z,99704.42
2022-10-22T02:29:02.804Z,99697.63
2022-10-22T02:37:27.527Z,99695.98
2022-10-22T02:45:50.418Z,99701.79
2022-10-22T02:54:13.226Z,99687.33
2022-10-22T03:02:36.176Z,99680.83
2022-10-22T03:10:59.145Z,99682.14
2022-10-22T03:19:22.044Z,99675.76
2022-10-22T03:27:46.592Z,99687.25
2022-10-22T03:36:09.747Z,99691.66
2022-10-22T03:44:33.732Z,99682.84
2022-10-22T03:52:58.262Z,99679.42
2022-10-22T04:01:21.070Z,99701.88
2022-10-22T04:09:44.075Z,99693.06
2022-10-22T04:18:06.873Z,99673.04
2022-10-22T04:26:29.742Z,99649.91
2022-10-22T04:34:52.768Z,99653.49
2022-10-22T04:43:15.660Z,99648.05
2022-10-22T04:51:38.477Z,99629.64
2022-10-22T05:00:01.327Z,99619.88
2022-10-22T05:08:24.213Z,99624.13
2022-10-22T05:16:48.882Z,99633.59
2022-10-22T05:25:12.317Z,99637.11
2022-10-22T05:33:35.276Z,99647.62
2022-10-22T05:41:58.562Z,99657.65
2022-10-22T05:50:21.767Z,99651.84
2022-10-22T05:58:45.559Z,99654.11
2022-10-22T06:07:15.463Z,99646.27
2022-10-22T06:15:38.342Z,99651.77
2022-10-22T06:24:02.536Z,99646.89
2022-10-22T06:32:25.504Z,99660.23
2022-10-22T06:40:48.754Z,99668.02
2022-10-22T06:49:15.616Z,99658.59
2022-10-22T06:57:38.816Z,99658.73
2022-10-22T07:06:03.596Z,99665.59
2022-10-22T07:14:26.778Z,99666.65
2022-10-22T07:22:53.157Z,99682.86
2022-10-22T07:31:21.714Z,99711.81
2022-10-22T07:39:47.413Z,99698.09
2022-10-22T07:48:11.638Z,99681.61
2022-10-22T07:56:34.540Z,99668.40
2022-10-22T08:04:57.368Z,99683.98
2022-10-22T08:13:20.808Z,99691.30
2022-10-22T08:21:43.662Z,99704.73
2022-10-22T08:30:07.305Z,99714.36
2022-10-22T08:38:31.606Z,99718.59
2022-10-22T08:47:09.761Z,99726.20
2022-10-22T08:55:37.237Z,99726.51
2022-10-22T09:04:27.793Z,99716.67
2022-10-22T09:12:51.422Z,99716.02
2022-10-22T09:21:29.318Z,99717.39
2022-10-22T09:29:52.320Z,99721.55
2022-10-22T09:38:18.965Z,99725.45
2022-10-22T09:46:45.482Z,99724.22
2022-10-22T09:55:18.494Z,99716.36
2022-10-22T10:03:41.290Z,99713.32
2022-10-22T10:12:09.908Z,99708.86
2022-10-22T10:20:52.842Z,99706.51
2022-10-22T10:29:21.890Z,99699.05
2022-10-22T10:37:59.745Z,99705.14
2022-10-22T10:46:48.178Z,99707.89
2022-10-22T10:55:32.485Z,99710.09
2022-10-22T11:04:11.993Z,99702.16
2022-10-22T11:12:42.520Z,99715.06
2022-10-22T11:21:18.913Z,99708.65
2022-10-22T11:29:46.197Z,99693.05
2022-10-22T11:38:15.152Z,99680.60
2022-10-22T11:46:57.421Z,99677.48
2022-10-22T11:55:45.455Z,99672.20
2022-10-22T12:04:21.926Z,99677.17
2022-10-22T12:12:45.067Z,99677.77
2022-10-22T12:21:14.029Z,99673.09
2022-10-22T12:29:36.773Z,99671.48
2022-10-22T12:38:08.405Z,99673.27
2022-10-22T12:46:33.880Z,99674.94
2022-10-22T12:54:56.869Z,99673.48
2022-10-22T13:03:32.954Z,99666.89
2022-10-22T13:12:04.667Z,99662.94
2022-10-22T13:20:27.593Z,99642.86
2022-10-22T13:28:56.484Z,99654.07
2022-10-22T13:37:19.555Z,99653.38
2022-10-22T13:45:44.546Z,99643.52
2022-10-22T13:54:15.261Z,99650.11
2022-10-22T14:02:38.150Z,99637.71
2022-10-22T14:11:01.011Z,99642.70
2022-10-22T14:19:23.816Z,99621.65
2022-10-22T14:27:47.480Z,99620.92
2022-10-22T14:36:14.421Z,99620.06
2022-10-22T14:44:37.399Z,99633.40
2022-10-22T14:53:00.223Z,99646.94
2022-10-22T15:01:23.026Z,99664.70
2022-10-22T15:09:45.905Z,99651.05
2022-10-22T15:18:08.691Z,99632.85
2022-10-22T15:26:31.594Z,99638.45
2022-10-22T15:34:55.123Z,99642.86
2022-10-22T15:43:17.957Z,99649.05
2022-10-22T15:51:40.817Z,99657.29
2022-10-22T16:00:05.673Z,99669.52
2022-10-22T16:08:35.702Z,99667.73
2022-10-22T16:16:59.681Z,99672.68
2022-10-22T16:25:26.302Z,99677.09
2022-10-22T16:33:51.106Z,99683.00
2022-10-22T16:42:13.966Z,99681.72
2022-10-22T16:50:39.664Z,99682.77
2022-10-22T16:59:02.549Z,99679.85
2022-10-22T17:07:25.344Z,99680.91
2022-10-22T17:15:48.123Z,99684.98
2022-10-22T17:24:11.414Z,99686.56
2022-10-22T17:32:39.795Z,99689.98
2022-10-22T17:41:04.178Z,99699.33
2022-10-22T17:49:28.826Z,99698.36
2022-10-22T17:57:51.651Z,99695.16
2022-10-22T18:06:14.955Z,99698.89
2022-10-22T18:14:37.921Z,99699.30
2022-10-22T18:23:00.657Z,99701.57
2022-10-22T18:31:24.910Z,99703.16
2022-10-22T18:39:47.735Z,99700.54
2022-10-22T18:48:11.035Z,99704.95
2022-10-22T18:56:34.025Z,99706.09
2022-10-22T19:04:57.002Z,99704.70
2022-10-22T19:13:21.200Z,99711.53
2022-10-22T19:21:44.605Z,99712.65
2022-10-22T19:30:07.844Z,99716.89
2022-10-22T19:38:30.826Z,99720.95
2022-10-22T19:46:53.908Z,99731.68
2022-10-22T19:55:17.204Z,99736.16
2022-10-22T20:03:40.482Z,99741.36
2022-10-22T20:12:03.424Z,99750.60
2022-10-22T20:20:26.706Z,99754.80
2022-10-22T20:28:50.318Z,99757.73
2022-10-22T20:37:13.294Z,99758.30
2022-10-22T20:45:36.674Z,99762.31
2022-10-22T20:53:59.481Z,99765.02
2022-10-22T21:02:22.689Z,99770.06
2022-10-22T21:10:46.517Z,99771.17
2022-10-22T21:19:09.289Z,99776.69
2022-10-22T21:27:32.117Z,99778.86
2022-10-22T21:35:56.406Z,99783.80
2022-10-22T21:44:19.226Z,99779.00
2022-10-22T21:52:42.012Z,99776.65
2022-10-22T22:01:04.889Z,99781.01
2022-10-22T22:09:28.867Z,99770.30
2022-10-22T22:17:51.721Z,99769.39
2022-10-22T22:26:16.916Z,99779.42
2022-10-22T22:34:40.809Z,99793.46
2022-10-22T22:43:03.626Z,99798.11
2022-10-22T22:51:26.477Z,99803.27
2022-10-22T22:59:52.429Z,99807.11
2022-10-22T23:08:15.258Z,99817.05
2022-10-22T23:16:41.236Z,99826.93
2022-10-22T23:25:04.313Z,99827.84
2022-10-22T23:33:27.071Z,99832.80
2022-10-22T23:41:50.440Z,99841.27
2022-10-22T23:50:13.230Z,99847.52
2022-10-22T23:58:36.567Z,99856.82
